createdAt,value
2019-05-05T00:00:05.850Z,69.68
2019-05-05T00:01:05.873Z,70.25
2019-05-05T00:02:05.899Z,70.35
2019-05-05T00:03:05.929Z,69.78
2019-05-05T00:04:05.956Z,70.35
2019-05-05T00:05:08.582Z,70.25
2019-05-05T00:06:06.046Z,69.96
2019-05-05T00:07:06.041Z,70.06
2019-05-05T00:08:06.066Z,70.25
2019-05-05T00:09:06.096Z,70.54
2019-05-05T00:10:06.123Z,70.44
2019-05-05T00:11:06.150Z,70.25
2019-05-05T00:12:06.181Z,70.25
2019-05-05T00:13:06.205Z,70.25
2019-05-05T00:14:06.233Z,70.44
2019-05-05T00:15:06.262Z,70.54
2019-05-05T00:16:06.291Z,70.82
2019-05-05T00:17:06.317Z,70.73
2019-05-05T00:18:06.345Z,71.20
2019-05-05T00:19:06.371Z,71.58
2019-05-05T00:20:06.402Z,71.01
2019-05-05T00:21:06.427Z,71.01
2019-05-05T00:22:06.455Z,71.77
2019-05-05T00:23:06.482Z,71.30
2019-05-05T00:24:06.510Z,71.30
2019-05-05T00:25:06.537Z,71.20
2019-05-05T00:26:06.567Z,71.48
2019-05-05T00:27:06.594Z,71.58
2019-05-05T00:28:06.622Z,71.30
2019-05-05T00:29:06.649Z,71.55
2019-05-05T00:30:06.675Z,71.58
2019-05-05T00:31:06.703Z,71.64
2019-05-05T00:32:06.731Z,71.77
2019-05-05T00:33:06.759Z,71.45
2019-05-05T00:34:06.785Z,71.77
2019-05-05T00:35:06.813Z,72.11
2019-05-05T00:36:07.822Z,71.83
2019-05-05T00:37:06.872Z,72.11
2019-05-05T00:38:06.896Z,72.02
2019-05-05T00:39:06.926Z,72.40
2019-05-05T00:40:06.955Z,72.49
2019-05-05T00:41:06.979Z,72.30
2019-05-05T00:42:07.007Z,72.30
2019-05-05T00:43:07.033Z,72.30
2019-05-05T00:44:07.064Z,72.49
2019-05-05T00:45:07.089Z,72.02
2019-05-05T00:46:07.117Z,72.40
2019-05-05T00:47:07.144Z,72.30
2019-05-05T00:48:07.186Z,72.30
2019-05-05T00:49:07.198Z,72.30
2019-05-05T00:50:07.228Z,72.30
2019-05-05T00:51:07.260Z,72.21
2019-05-05T00:52:07.280Z,72.59
2019-05-05T00:53:07.309Z,72.21
2019-05-05T00:54:07.336Z,72.11
2019-05-05T00:55:07.363Z,72.21
2019-05-05T00:56:07.394Z,72.68
2019-05-05T00:57:07.420Z,72.49
2019-05-05T00:58:07.449Z,71.92
2019-05-05T00:59:07.474Z,72.21
2019-05-05T01:00:07.501Z,72.21
2019-05-05T01:01:07.528Z,71.92
2019-05-05T01:02:07.557Z,72.40
2019-05-05T01:03:07.584Z,72.88
2019-05-05T01:04:07.613Z,72.49
2019-05-05T01:05:07.638Z,72.21
2019-05-05T01:06:07.666Z,72.88
2019-05-05T01:07:07.692Z,72.78
2019-05-05T01:08:07.722Z,72.68
2019-05-05T01:09:07.748Z,72.88
2019-05-05T01:10:07.775Z,73.25
2019-05-05T01:11:07.802Z,73.25
2019-05-05T01:12:07.830Z,73.16
2019-05-05T01:13:07.858Z,73.25
2019-05-05T01:14:07.885Z,73.63
2019-05-05T01:15:07.911Z,73.54
2019-05-05T01:16:07.939Z,73.44
2019-05-05T01:17:07.967Z,73.54
2019-05-05T01:18:07.996Z,73.72
2019-05-05T01:19:08.022Z,73.35
2019-05-05T01:20:08.049Z,73.25
2019-05-05T01:21:08.078Z,73.44
2019-05-05T01:22:08.103Z,73.35
2019-05-05T01:23:08.131Z,73.07
2019-05-05T01:24:08.159Z,73.44
2019-05-05T01:25:08.187Z,73.07
2019-05-05T01:26:08.216Z,73.54
2019-05-05T01:27:08.240Z,73.35
2019-05-05T01:28:08.267Z,73.25
2019-05-05T01:29:08.294Z,73.63
2019-05-05T01:30:08.324Z,73.25
2019-05-05T01:31:08.350Z,73.35
2019-05-05T01:32:08.376Z,73.35
2019-05-05T01:33:08.403Z,73.35
2019-05-05T01:34:08.431Z,73.54
2019-05-05T01:35:08.465Z,73.54
2019-05-05T01:36:08.485Z,73.44
2019-05-05T01:37:08.523Z,73.35
2019-05-05T01:38:08.543Z,73.72
2019-05-05T01:39:08.567Z,73.25
2019-05-05T01:40:08.596Z,73.44
2019-05-05T01:41:08.622Z,73.54
2019-05-05T01:42:08.654Z,73.54
2019-05-05T01:43:08.676Z,73.44
2019-05-05T01:44:08.705Z,73.63
2019-05-05T01:45:08.729Z,74.01
2019-05-05T01:46:08.763Z,74.07
2019-05-05T01:47:08.783Z,74.16
2019-05-05T01:48:08.810Z,73.97
2019-05-05T01:49:08.839Z,73.79
2019-05-05T01:50:18.360Z,73.97
2019-05-05T01:51:08.892Z,74.07
2019-05-05T01:52:08.921Z,74.54
2019-05-05T01:53:08.947Z,74.16
2019-05-05T01:54:08.974Z,74.16
2019-05-05T01:55:09.001Z,74.35
2019-05-05T01:56:09.028Z,74.73
2019-05-05T01:57:09.057Z,74.54
2019-05-05T01:58:09.090Z,74.64
2019-05-05T01:59:09.110Z,74.45
2019-05-05T02:00:09.138Z,74.45
2019-05-05T02:01:09.166Z,74.35
2019-05-05T02:02:09.192Z,75.02
2019-05-05T02:03:09.218Z,74.35
2019-05-05T02:04:09.246Z,74.54
2019-05-05T02:05:09.277Z,74.64
2019-05-05T02:06:09.308Z,75.02
2019-05-05T02:07:09.327Z,74.64
2019-05-05T02:08:09.356Z,74.45
2019-05-05T02:09:09.383Z,74.73
2019-05-05T02:10:09.419Z,75.11
2019-05-05T02:11:09.434Z,75.21
2019-05-05T02:12:09.462Z,75.11
2019-05-05T02:13:09.491Z,75.31
2019-05-05T02:14:09.523Z,75.11
2019-05-05T02:15:09.542Z,75.40
2019-05-05T02:16:09.570Z,75.21
2019-05-05T02:17:09.597Z,75.31
2019-05-05T02:18:09.624Z,75.40
2019-05-05T02:19:09.651Z,75.02
2019-05-05T02:20:09.678Z,75.02
2019-05-05T02:21:09.705Z,75.21
2019-05-05T02:22:09.733Z,75.87
2019-05-05T02:23:09.757Z,75.31
2019-05-05T02:24:09.786Z,75.68
2019-05-05T02:25:09.814Z,75.40
2019-05-05T02:26:09.842Z,75.40
2019-05-05T02:27:09.868Z,75.49
2019-05-05T02:28:09.893Z,75.59
2019-05-05T02:29:09.921Z,75.87
2019-05-05T02:30:09.947Z,76.15
2019-05-05T02:31:09.975Z,75.68
2019-05-05T02:32:10.001Z,76.06
2019-05-05T02:33:10.033Z,75.96
2019-05-05T02:34:10.072Z,75.96
2019-05-05T02:35:10.082Z,75.96
2019-05-05T02:36:10.107Z,76.15
2019-05-05T02:37:10.139Z,75.68
2019-05-05T02:38:10.163Z,76.15
2019-05-05T02:39:10.190Z,76.06
2019-05-05T02:40:10.216Z,75.96
2019-05-05T02:41:10.243Z,75.68
2019-05-05T02:42:10.281Z,75.87
2019-05-05T02:43:10.295Z,75.87
2019-05-05T02:44:10.332Z,76.25
2019-05-05T02:45:10.350Z,75.87
2019-05-05T02:46:10.379Z,76.63
2019-05-05T02:47:10.403Z,76.44
2019-05-05T02:48:10.433Z,76.34
2019-05-05T02:49:10.456Z,76.25
2019-05-05T02:50:10.483Z,76.34
2019-05-05T02:51:10.511Z,76.15
2019-05-05T02:52:10.538Z,76.54
2019-05-05T02:53:10.563Z,76.34
2019-05-05T02:54:10.589Z,76.73
2019-05-05T02:55:10.617Z,76.82
2019-05-05T02:56:10.645Z,76.63
2019-05-05T02:57:10.670Z,77.20
2019-05-05T02:58:10.697Z,77.01
2019-05-05T02:59:10.724Z,77.06
2019-05-05T03:00:10.758Z,76.92
2019-05-05T03:01:10.777Z,76.82
2019-05-05T03:02:10.805Z,77.01
2019-05-05T03:03:10.837Z,77.35
2019-05-05T03:04:10.857Z,77.54
2019-05-05T03:05:10.883Z,77.73
2019-05-05T03:06:10.912Z,77.39
2019-05-05T03:07:10.936Z,77.64
2019-05-05T03:08:10.964Z,77.64
2019-05-05T03:09:10.990Z,77.83
2019-05-05T03:10:11.017Z,77.92
2019-05-05T03:11:11.043Z,77.64
2019-05-05T03:12:11.263Z,78.11
2019-05-05T03:13:11.099Z,77.73
2019-05-05T03:14:11.125Z,77.64
2019-05-05T03:15:11.150Z,78.20
2019-05-05T03:16:11.177Z,78.02
2019-05-05T03:17:11.203Z,78.02
2019-05-05T03:18:13.348Z,78.02
2019-05-05T03:19:11.257Z,77.54
2019-05-05T03:20:11.285Z,77.73
2019-05-05T03:21:11.310Z,77.73
2019-05-05T03:22:11.340Z,77.35
2019-05-05T03:23:13.506Z,77.73
2019-05-05T03:24:11.389Z,77.64
2019-05-05T03:25:13.495Z,77.64
2019-05-05T03:26:11.447Z,77.92
2019-05-05T03:27:11.469Z,77.64
2019-05-05T03:28:13.458Z,77.45
2019-05-05T03:29:13.730Z,77.64
2019-05-05T03:30:11.559Z,77.73
2019-05-05T03:31:11.576Z,77.64
2019-05-05T03:32:11.866Z,77.35
2019-05-05T03:33:11.636Z,77.45
2019-05-05T03:34:11.655Z,78.02
2019-05-05T03:35:13.483Z,78.02
2019-05-05T03:36:13.515Z,78.02
2019-05-05T03:37:11.735Z,78.02
2019-05-05T03:38:11.763Z,77.83
2019-05-05T03:39:11.792Z,78.02
2019-05-05T03:40:11.814Z,77.83
2019-05-05T03:41:13.602Z,77.83
2019-05-05T03:42:13.856Z,77.54
2019-05-05T03:43:11.896Z,77.73
2019-05-05T03:44:13.987Z,77.73
2019-05-05T03:45:11.948Z,77.73
2019-05-05T03:46:13.574Z,77.92
2019-05-05T03:47:13.541Z,77.73
2019-05-05T03:48:13.610Z,77.83
2019-05-05T03:49:13.939Z,77.45
2019-05-05T03:50:14.301Z,77.45
2019-05-05T03:51:18.821Z,77.73
2019-05-05T03:52:13.894Z,77.45
2019-05-05T03:53:14.034Z,77.54
2019-05-05T03:54:14.428Z,77.64
2019-05-05T03:55:13.799Z,77.54
2019-05-05T03:56:14.036Z,77.45
2019-05-05T03:57:14.112Z,77.54
2019-05-05T03:58:14.094Z,77.54
2019-05-05T03:59:14.116Z,77.64
2019-05-05T04:00:14.136Z,77.64
2019-05-05T04:01:14.442Z,77.73
2019-05-05T04:02:14.170Z,77.54
2019-05-05T04:03:12.432Z,77.73
2019-05-05T04:04:13.908Z,77.73
2019-05-05T04:05:14.462Z,77.64
2019-05-05T04:06:14.569Z,77.92
2019-05-05T04:07:13.963Z,77.16
2019-05-05T04:08:14.394Z,77.64
2019-05-05T04:09:13.759Z,77.54
2019-05-05T04:10:14.054Z,77.73
2019-05-05T04:11:14.366Z,77.54
2019-05-05T04:12:13.711Z,77.64
2019-05-05T04:13:13.888Z,77.54
2019-05-05T04:14:14.236Z,77.73
2019-05-05T04:15:14.229Z,77.54
2019-05-05T04:16:13.617Z,77.54
2019-05-05T04:17:14.129Z,77.73
2019-05-05T04:18:14.587Z,77.64
2019-05-05T04:19:13.844Z,77.54
2019-05-05T04:20:13.829Z,77.45
2019-05-05T04:21:14.514Z,77.73
2019-05-05T04:22:13.539Z,78.11
2019-05-05T04:23:14.113Z,77.45
2019-05-05T04:24:14.585Z,78.30
2019-05-05T04:25:13.900Z,77.54
2019-05-05T04:26:14.233Z,78.30
2019-05-05T04:27:14.718Z,77.64
2019-05-05T04:28:13.661Z,77.64
2019-05-05T04:29:13.961Z,77.64
2019-05-05T04:30:14.293Z,77.64
2019-05-05T04:31:13.646Z,78.02
2019-05-05T04:32:14.035Z,78.02
2019-05-05T04:33:14.203Z,78.20
2019-05-05T04:34:13.537Z,78.02
2019-05-05T04:35:14.056Z,78.39
2019-05-05T04:36:14.449Z,78.39
2019-05-05T04:37:14.936Z,77.73
2019-05-05T04:38:13.892Z,77.83
2019-05-05T04:39:14.382Z,77.64
2019-05-05T04:40:14.825Z,78.39
2019-05-05T04:41:13.998Z,77.73
2019-05-05T04:42:14.168Z,77.64
2019-05-05T04:43:14.307Z,78.30
2019-05-05T04:44:14.859Z,78.30
2019-05-05T04:45:14.727Z,77.83
2019-05-05T04:46:14.101Z,77.64
2019-05-05T04:47:14.501Z,77.64
2019-05-05T04:48:13.817Z,78.11
2019-05-05T04:49:14.062Z,77.35
2019-05-05T04:50:14.936Z,78.39
2019-05-05T04:51:13.979Z,78.43
2019-05-05T04:52:14.270Z,77.96
2019-05-05T04:53:13.747Z,77.67
2019-05-05T04:54:14.239Z,77.58
2019-05-05T04:55:13.936Z,77.77
2019-05-05T04:56:14.190Z,77.48
2019-05-05T04:57:14.978Z,77.29
2019-05-05T04:58:13.879Z,77.01
2019-05-05T04:59:14.460Z,76.82
2019-05-05T05:00:13.956Z,76.54
2019-05-05T05:01:13.960Z,77.20
2019-05-05T05:02:14.492Z,76.92
2019-05-05T05:03:14.011Z,77.01
2019-05-05T05:04:14.038Z,77.01
2019-05-05T05:05:14.587Z,76.73
2019-05-05T05:06:14.657Z,77.20
2019-05-05T05:07:14.118Z,77.01
2019-05-05T05:08:14.145Z,76.54
2019-05-05T05:09:14.734Z,77.01
2019-05-05T05:10:14.198Z,76.34
2019-05-05T05:11:14.347Z,76.44
2019-05-05T05:12:14.673Z,76.34
2019-05-05T05:13:14.278Z,76.15
2019-05-05T05:14:14.488Z,76.34
2019-05-05T05:15:14.697Z,76.54
2019-05-05T05:16:14.357Z,75.68
2019-05-05T05:17:14.385Z,76.63
2019-05-05T05:18:14.868Z,76.25
2019-05-05T05:19:14.436Z,76.44
2019-05-05T05:20:14.464Z,76.34
2019-05-05T05:21:14.737Z,76.44
2019-05-05T05:22:14.516Z,76.54
2019-05-05T05:23:14.542Z,76.39
2019-05-05T05:24:14.772Z,76.06
2019-05-05T05:25:14.595Z,76.06
2019-05-05T05:26:14.624Z,76.29
2019-05-05T05:27:14.652Z,75.72
2019-05-05T05:28:14.676Z,76.10
2019-05-05T05:29:15.187Z,76.20
2019-05-05T05:30:14.730Z,76.86
2019-05-05T05:31:14.757Z,76.67
2019-05-05T05:32:15.576Z,76.39
2019-05-05T05:33:15.041Z,77.24
2019-05-05T05:34:15.004Z,77.43
2019-05-05T05:35:14.864Z,76.76
2019-05-05T05:36:14.892Z,76.76
2019-05-05T05:37:14.919Z,76.39
2019-05-05T05:38:14.946Z,76.10
2019-05-05T05:39:14.972Z,75.91
2019-05-05T05:40:15.007Z,76.67
2019-05-05T05:41:15.028Z,76.48
2019-05-05T05:42:15.055Z,76.57
2019-05-05T05:43:15.078Z,75.91
2019-05-05T05:44:15.111Z,75.81
2019-05-05T05:45:15.133Z,76.01
2019-05-05T05:46:15.164Z,75.91
2019-05-05T05:47:15.187Z,76.04
2019-05-05T05:48:15.215Z,75.67
2019-05-05T05:49:15.242Z,75.57
2019-05-05T05:50:15.276Z,75.47
2019-05-05T05:51:15.296Z,75.85
2019-05-05T05:52:19.071Z,76.14
2019-05-05T05:53:15.350Z,75.47
2019-05-05T05:54:15.378Z,75.09
2019-05-05T05:55:15.404Z,74.71
2019-05-05T05:56:15.431Z,74.81
2019-05-05T05:57:15.461Z,74.71
2019-05-05T05:58:15.489Z,74.33
2019-05-05T05:59:15.512Z,74.52
2019-05-05T06:00:15.541Z,74.15
2019-05-05T06:01:15.570Z,73.86
2019-05-05T06:02:15.782Z,74.05
2019-05-05T06:03:15.622Z,73.19
2019-05-05T06:04:15.650Z,73.57
2019-05-05T06:05:15.678Z,73.29
2019-05-05T06:06:15.705Z,73.19
2019-05-05T06:07:15.734Z,73.52
2019-05-05T06:08:15.776Z,73.61
2019-05-05T06:09:15.787Z,73.52
2019-05-05T06:10:24.219Z,73.14
2019-05-05T06:11:15.844Z,73.33
2019-05-05T06:12:15.870Z,72.85
2019-05-05T06:13:15.950Z,72.75
2019-05-05T06:14:15.925Z,73.14
2019-05-05T06:15:15.952Z,72.75
2019-05-05T06:16:15.979Z,72.85
2019-05-05T06:17:16.009Z,72.28
2019-05-05T06:18:16.036Z,72.09
2019-05-05T06:19:16.061Z,72.28
2019-05-05T06:20:16.110Z,72.38
2019-05-05T06:21:16.116Z,72.09
2019-05-05T06:22:28.142Z,72.00
2019-05-05T06:23:16.174Z,71.43
2019-05-05T06:24:16.200Z,71.62
2019-05-05T06:25:16.375Z,71.52
2019-05-05T06:26:16.255Z,71.23
2019-05-05T06:27:16.282Z,71.71
2019-05-05T06:28:16.311Z,71.43
2019-05-05T06:29:16.337Z,71.62
2019-05-05T06:30:16.368Z,71.14
2019-05-05T06:31:16.394Z,70.95
2019-05-05T06:32:16.422Z,71.14
2019-05-05T06:33:16.451Z,70.95
2019-05-05T06:34:16.479Z,71.04
2019-05-05T06:35:16.505Z,71.56
2019-05-05T06:36:16.535Z,72.13
2019-05-05T06:37:16.563Z,71.37
2019-05-05T06:38:16.590Z,71.27
2019-05-05T06:39:16.617Z,71.56
2019-05-05T06:40:16.645Z,71.66
2019-05-05T06:41:16.672Z,71.08
2019-05-05T06:42:16.701Z,70.70
2019-05-05T06:43:16.727Z,70.61
2019-05-05T06:44:16.754Z,70.70
2019-05-05T06:45:16.783Z,70.42
2019-05-05T06:46:16.813Z,70.32
2019-05-05T06:47:16.854Z,70.61
2019-05-05T06:48:16.867Z,70.51
2019-05-05T06:49:16.895Z,70.04
2019-05-05T06:50:16.922Z,69.27
2019-05-05T06:51:16.954Z,69.66
2019-05-05T06:52:16.978Z,69.85
2019-05-05T06:53:17.008Z,69.56
2019-05-05T06:54:17.036Z,69.27
2019-05-05T06:55:17.063Z,69.66
2019-05-05T06:56:17.092Z,69.37
2019-05-05T06:57:17.120Z,69.69
2019-05-05T06:58:17.159Z,69.31
2019-05-05T06:59:17.176Z,69.31
2019-05-05T07:00:17.205Z,69.12
2019-05-05T07:01:17.233Z,69.12
2019-05-05T07:02:17.262Z,68.93
2019-05-05T07:03:17.288Z,68.74
2019-05-05T07:04:17.317Z,68.55
2019-05-05T07:05:17.346Z,68.36
2019-05-05T07:06:17.373Z,68.07
2019-05-05T07:07:17.401Z,67.79
2019-05-05T07:08:17.433Z,67.69
2019-05-05T07:09:17.459Z,67.88
2019-05-05T07:10:17.490Z,67.32
2019-05-05T07:11:17.574Z,67.69
2019-05-05T07:12:17.581Z,67.41
2019-05-05T07:13:17.572Z,67.88
2019-05-05T07:14:17.603Z,67.35
2019-05-05T07:15:17.630Z,67.35
2019-05-05T07:16:17.659Z,67.44
2019-05-05T07:17:17.687Z,66.97
2019-05-05T07:18:17.715Z,67.44
2019-05-05T07:19:17.744Z,67.35
2019-05-05T07:20:17.771Z,66.78
2019-05-05T07:21:17.808Z,66.68
2019-05-05T07:22:17.916Z,66.68
2019-05-05T07:23:17.857Z,66.11
2019-05-05T07:24:17.887Z,66.20
2019-05-05T07:25:17.916Z,65.73
2019-05-05T07:26:17.944Z,65.54
2019-05-05T07:27:17.973Z,65.95
2019-05-05T07:28:18.000Z,65.86
2019-05-05T07:29:18.207Z,65.58
2019-05-05T07:30:18.060Z,65.38
2019-05-05T07:31:18.090Z,65.19
2019-05-05T07:32:18.117Z,65.10
2019-05-05T07:33:18.146Z,65.10
2019-05-05T07:34:18.175Z,65.00
2019-05-05T07:35:18.204Z,65.10
2019-05-05T07:36:18.232Z,64.24
2019-05-05T07:37:18.273Z,64.05
2019-05-05T07:38:18.290Z,63.89
2019-05-05T07:39:18.318Z,63.42
2019-05-05T07:40:18.348Z,63.42
2019-05-05T07:41:18.378Z,63.04
2019-05-05T07:42:18.408Z,62.27
2019-05-05T07:43:18.435Z,62.08
2019-05-05T07:44:26.589Z,61.42
2019-05-05T07:45:22.952Z,60.56
2019-05-05T07:46:18.523Z,60.46
2019-05-05T07:47:18.552Z,60.18
2019-05-05T07:48:18.583Z,59.61
2019-05-05T07:49:18.611Z,59.54
2019-05-05T07:50:28.493Z,59.64
2019-05-05T07:51:18.670Z,59.64
2019-05-05T07:52:18.753Z,59.64
2019-05-05T07:53:18.731Z,59.64
2019-05-05T07:54:18.758Z,58.59
2019-05-05T07:55:18.788Z,59.16
2019-05-05T07:56:18.817Z,58.02
2019-05-05T07:57:18.851Z,57.82
2019-05-05T07:58:18.879Z,57.38
2019-05-05T07:59:18.910Z,56.87
2019-05-05T08:00:18.936Z,57.00
2019-05-05T08:01:18.966Z,56.71
2019-05-05T08:02:18.995Z,57.67
2019-05-05T08:03:19.026Z,56.33
2019-05-05T08:04:19.056Z,55.00
2019-05-05T08:05:19.085Z,54.71
2019-05-05T08:06:19.115Z,54.33
2019-05-05T08:07:19.146Z,55.02
2019-05-05T08:08:19.178Z,54.64
2019-05-05T08:09:21.820Z,54.93
2019-05-05T08:10:19.235Z,54.64
2019-05-05T08:11:19.264Z,54.93
2019-05-05T08:12:19.295Z,54.74
2019-05-05T08:13:19.325Z,53.88
2019-05-05T08:14:19.354Z,52.55
2019-05-05T08:15:19.383Z,51.97
2019-05-05T08:16:19.419Z,51.68
2019-05-05T08:17:19.445Z,51.88
2019-05-05T08:18:19.475Z,51.33
2019-05-05T08:19:19.505Z,51.52
2019-05-05T08:20:19.581Z,51.62
2019-05-05T08:21:19.565Z,50.95
2019-05-05T08:22:19.604Z,50.47
2019-05-05T08:23:30.221Z,50.47
2019-05-05T08:24:19.657Z,50.67
2019-05-05T08:25:33.572Z,50.76
2019-05-05T08:26:19.718Z,50.57
2019-05-05T08:27:21.043Z,50.95
2019-05-05T08:28:19.783Z,50.95
2019-05-05T08:29:19.810Z,50.47
2019-05-05T08:30:19.840Z,50.47
2019-05-05T08:31:19.870Z,49.62
2019-05-05T08:32:19.899Z,49.90
2019-05-05T08:33:19.932Z,49.93
2019-05-05T08:34:19.962Z,49.44
2019-05-05T08:35:19.993Z,49.26
2019-05-05T08:36:20.022Z,49.35
2019-05-05T08:37:20.054Z,48.49
2019-05-05T08:38:20.092Z,47.34
2019-05-05T08:39:21.625Z,47.73
2019-05-05T08:40:20.148Z,46.87
2019-05-05T08:41:20.175Z,45.82
2019-05-05T08:42:20.209Z,45.53
2019-05-05T08:43:20.243Z,45.72
2019-05-05T08:44:20.270Z,45.37
2019-05-05T08:45:23.653Z,45.08
2019-05-05T08:46:20.333Z,44.31
2019-05-05T08:47:20.362Z,43.74
2019-05-05T08:48:20.397Z,43.74
2019-05-05T08:49:20.425Z,43.55
2019-05-05T08:50:23.880Z,43.00
2019-05-05T08:51:20.486Z,42.81
2019-05-05T08:52:20.518Z,42.04
2019-05-05T08:53:20.549Z,41.68
2019-05-05T08:54:20.585Z,41.78
2019-05-05T08:55:20.613Z,41.49
2019-05-05T08:56:20.643Z,40.72
2019-05-05T08:57:20.680Z,40.06
2019-05-05T08:58:20.705Z,40.34
2019-05-05T08:59:20.868Z,39.10
2019-05-05T09:00:20.768Z,38.81
2019-05-05T09:01:20.813Z,40.23
2019-05-05T09:02:20.833Z,40.80
2019-05-05T09:03:20.863Z,41.09
2019-05-05T09:04:20.895Z,41.28
2019-05-05T09:05:20.926Z,40.42
2019-05-05T09:06:20.960Z,40.61
2019-05-05T09:07:20.988Z,41.11
2019-05-05T09:08:21.022Z,41.01
2019-05-05T09:09:21.054Z,40.72
2019-05-05T09:10:21.085Z,40.06
2019-05-05T09:11:21.117Z,38.81
2019-05-05T09:12:21.642Z,38.91
2019-05-05T09:13:21.180Z,38.81
2019-05-05T09:14:21.212Z,39.00
2019-05-05T09:15:21.243Z,38.91
2019-05-05T09:16:21.278Z,38.71
2019-05-05T09:17:21.306Z,38.91
2019-05-05T09:18:21.338Z,38.71
2019-05-05T09:19:21.369Z,38.34
2019-05-05T09:20:21.403Z,38.71
2019-05-05T09:21:21.435Z,37.85
2019-05-05T09:22:21.466Z,38.05
2019-05-05T09:23:21.496Z,37.85
2019-05-05T09:24:21.531Z,38.53
2019-05-05T09:25:23.449Z,37.57
2019-05-05T09:26:23.468Z,36.99
2019-05-05T09:27:21.625Z,38.07
2019-05-05T09:28:23.762Z,39.31
2019-05-05T09:29:21.689Z,37.97
2019-05-05T09:30:21.721Z,37.78
2019-05-05T09:31:23.873Z,37.88
2019-05-05T09:32:24.132Z,38.64
2019-05-05T09:33:21.818Z,37.90
2019-05-05T09:34:23.908Z,37.70
2019-05-05T09:35:23.880Z,37.99
2019-05-05T09:36:21.914Z,37.80
2019-05-05T09:37:21.947Z,36.65
2019-05-05T09:38:23.746Z,35.22
2019-05-05T09:39:23.871Z,33.57
2019-05-05T09:40:24.111Z,34.14
2019-05-05T09:41:23.552Z,34.81
2019-05-05T09:42:23.622Z,33.48
2019-05-05T09:43:24.015Z,33.57
2019-05-05T09:44:24.103Z,33.57
2019-05-05T09:45:24.337Z,34.63
2019-05-05T09:46:23.534Z,34.81
2019-05-05T09:47:24.012Z,34.34
2019-05-05T09:48:24.181Z,33.86
2019-05-05T09:49:24.475Z,33.76
2019-05-05T09:50:23.748Z,33.48
2019-05-05T09:51:24.159Z,33.40
2019-05-05T09:52:24.287Z,33.59
2019-05-05T09:53:23.812Z,33.59
2019-05-05T09:54:24.247Z,33.49
2019-05-05T09:55:24.167Z,33.69
2019-05-05T09:56:23.597Z,34.74
2019-05-05T09:57:23.721Z,34.45
2019-05-05T09:58:24.218Z,34.64
2019-05-05T09:59:24.064Z,34.26
2019-05-05T10:00:24.381Z,34.85
2019-05-05T10:01:24.541Z,33.61
2019-05-05T10:02:24.029Z,32.93
2019-05-05T10:03:22.788Z,31.30
2019-05-05T10:04:24.320Z,31.02
2019-05-05T10:05:23.628Z,31.40
2019-05-05T10:06:24.411Z,31.69
2019-05-05T10:07:24.278Z,30.73
2019-05-05T10:08:23.675Z,30.73
2019-05-05T10:09:24.182Z,31.30
2019-05-05T10:10:24.329Z,31.30
2019-05-05T10:11:23.822Z,30.73
2019-05-05T10:12:23.083Z,30.54
2019-05-05T10:13:23.117Z,30.73
2019-05-05T10:14:23.150Z,30.93
2019-05-05T10:15:23.183Z,31.59
2019-05-05T10:16:23.606Z,31.69
2019-05-05T10:17:24.422Z,31.69
2019-05-05T10:18:25.400Z,31.79
2019-05-05T10:19:24.359Z,31.69
2019-05-05T10:20:23.706Z,32.07
2019-05-05T10:21:24.659Z,31.79
2019-05-05T10:22:23.918Z,31.79
2019-05-05T10:23:23.638Z,31.21
2019-05-05T10:24:28.524Z,30.26
2019-05-05T10:25:23.922Z,30.54
2019-05-05T10:26:23.907Z,30.64
2019-05-05T10:27:23.579Z,30.83
2019-05-05T10:28:24.023Z,30.62
2019-05-05T10:29:23.642Z,29.77
2019-05-05T10:30:23.904Z,30.43
2019-05-05T10:31:24.197Z,29.95
2019-05-05T10:32:24.504Z,30.15
2019-05-05T10:33:24.657Z,30.54
2019-05-05T10:34:24.274Z,31.21
2019-05-05T10:35:23.923Z,31.30
2019-05-05T10:36:24.469Z,31.12
2019-05-05T10:37:23.907Z,31.23
2019-05-05T10:38:23.939Z,31.32
2019-05-05T10:39:24.123Z,31.42
2019-05-05T10:40:24.010Z,31.05
2019-05-05T10:41:24.039Z,31.05
2019-05-05T10:42:24.465Z,30.76
2019-05-05T10:43:24.104Z,30.40
2019-05-05T10:44:24.150Z,29.82
2019-05-05T10:45:24.572Z,29.91
2019-05-05T10:46:24.205Z,29.34
2019-05-05T10:47:24.266Z,27.71
2019-05-05T10:48:24.272Z,27.90
2019-05-05T10:49:24.513Z,28.57
2019-05-05T10:50:24.834Z,28.19
2019-05-05T10:51:24.372Z,29.05
2019-05-05T10:52:24.406Z,28.67
2019-05-05T10:53:24.439Z,29.72
2019-05-05T10:54:24.477Z,28.85
2019-05-05T10:55:24.505Z,29.04
2019-05-05T10:56:24.539Z,28.94
2019-05-05T10:57:24.581Z,28.66
2019-05-05T10:58:24.606Z,28.66
2019-05-05T10:59:24.639Z,28.08
2019-05-05T11:00:24.673Z,28.06
2019-05-05T11:01:24.708Z,27.97
2019-05-05T11:02:24.743Z,28.74
2019-05-05T11:03:24.774Z,28.74
2019-05-05T11:04:24.808Z,29.02
2019-05-05T11:05:24.843Z,28.64
2019-05-05T11:06:24.878Z,29.02
2019-05-05T11:07:24.909Z,29.12
2019-05-05T11:08:24.939Z,29.12
2019-05-05T11:09:24.977Z,29.50
2019-05-05T11:10:25.009Z,28.63
2019-05-05T11:11:25.041Z,28.74
2019-05-05T11:12:25.075Z,29.79
2019-05-05T11:13:25.107Z,29.22
2019-05-05T11:14:25.141Z,29.88
2019-05-05T11:15:25.174Z,29.98
2019-05-05T11:16:25.209Z,28.64
2019-05-05T11:17:25.241Z,28.85
2019-05-05T11:18:25.275Z,28.85
2019-05-05T11:19:25.311Z,29.04
2019-05-05T11:20:25.342Z,27.79
2019-05-05T11:21:25.376Z,27.79
2019-05-05T11:22:25.407Z,27.79
2019-05-05T11:23:25.442Z,27.70
2019-05-05T11:24:25.475Z,27.60
2019-05-05T11:25:25.508Z,27.01
2019-05-05T11:26:25.541Z,27.60
2019-05-05T11:27:25.574Z,27.97
2019-05-05T11:28:25.607Z,27.87
2019-05-05T11:29:25.643Z,28.26
2019-05-05T11:30:26.894Z,29.02
2019-05-05T11:31:25.708Z,28.83
2019-05-05T11:32:25.742Z,28.74
2019-05-05T11:33:25.777Z,29.22
2019-05-05T11:34:25.811Z,29.61
2019-05-05T11:35:25.842Z,28.17
2019-05-05T11:36:25.879Z,27.60
2019-05-05T11:37:25.909Z,27.50
2019-05-05T11:38:25.943Z,26.94
2019-05-05T11:39:25.977Z,27.52
2019-05-05T11:40:26.009Z,27.90
2019-05-05T11:41:26.054Z,27.82
2019-05-05T11:42:26.078Z,26.57
2019-05-05T11:43:26.111Z,25.32
2019-05-05T11:44:26.143Z,25.13
2019-05-05T11:45:26.179Z,25.15
2019-05-05T11:46:26.218Z,24.95
2019-05-05T11:47:26.244Z,25.24
2019-05-05T11:48:26.278Z,25.90
2019-05-05T11:49:26.312Z,25.53
2019-05-05T11:50:26.347Z,25.13
2019-05-05T11:51:26.382Z,25.32
2019-05-05T11:52:26.421Z,26.57
2019-05-05T11:53:26.448Z,26.86
2019-05-05T11:54:26.483Z,27.53
2019-05-05T11:55:26.516Z,27.63
2019-05-05T11:56:26.550Z,27.53
2019-05-05T11:57:26.586Z,26.86
2019-05-05T11:58:26.619Z,26.57
2019-05-05T11:59:26.650Z,26.67
2019-05-05T12:00:26.686Z,26.57
2019-05-05T12:01:26.724Z,25.81
2019-05-05T12:02:26.753Z,26.57
2019-05-05T12:03:26.788Z,26.48
2019-05-05T12:04:26.823Z,26.48
2019-05-05T12:05:26.856Z,26.76
2019-05-05T12:06:26.891Z,26.28
2019-05-05T12:07:26.926Z,26.38
2019-05-05T12:08:26.958Z,25.23
2019-05-05T12:09:26.994Z,25.52
2019-05-05T12:10:27.027Z,25.21
2019-05-05T12:11:27.059Z,25.52
2019-05-05T12:12:27.096Z,26.65
2019-05-05T12:13:27.128Z,26.85
2019-05-05T12:14:27.411Z,26.46
2019-05-05T12:15:27.196Z,26.56
2019-05-05T12:16:27.230Z,25.12
2019-05-05T12:17:27.264Z,25.40
2019-05-05T12:18:27.298Z,25.40
2019-05-05T12:19:27.333Z,25.97
2019-05-05T12:20:27.369Z,26.15
2019-05-05T12:21:27.410Z,26.82
2019-05-05T12:22:27.435Z,27.59
2019-05-05T12:23:27.469Z,27.59
2019-05-05T12:24:27.501Z,26.63
2019-05-05T12:25:28.653Z,26.82
2019-05-05T12:26:27.573Z,26.53
2019-05-05T12:27:27.604Z,26.72
2019-05-05T12:28:27.638Z,26.82
2019-05-05T12:29:27.672Z,27.49
2019-05-05T12:30:27.705Z,27.79
2019-05-05T12:31:27.737Z,27.03
2019-05-05T12:32:27.796Z,27.60
2019-05-05T12:33:27.809Z,26.83
2019-05-05T12:34:27.839Z,26.83
2019-05-05T12:35:27.877Z,26.65
2019-05-05T12:36:27.905Z,26.46
2019-05-05T12:37:27.939Z,25.79
2019-05-05T12:38:27.974Z,25.70
2019-05-05T12:39:28.011Z,25.31
2019-05-05T12:40:28.048Z,25.21
2019-05-05T12:41:28.077Z,25.21
2019-05-05T12:42:28.110Z,25.52
2019-05-05T12:43:28.144Z,25.42
2019-05-05T12:44:28.178Z,26.09
2019-05-05T12:45:28.213Z,26.49
2019-05-05T12:46:28.247Z,26.76
2019-05-05T12:47:28.277Z,27.45
2019-05-05T12:48:28.313Z,27.45
2019-05-05T12:49:28.347Z,26.78
2019-05-05T12:50:28.381Z,26.78
2019-05-05T12:51:28.414Z,26.39
2019-05-05T12:52:28.448Z,26.39